sensor_id;sensor_type;location;lat;lon;timestamp;P1;durP1;ratioP1;P2;durP2;ratioP2
20084;SDS011;10202;48.474;9.138;2024-03-23T00:52:43;3.53;;;2.40;;
20084;SDS011;10202;48.474;9.138;2024-03-23T00:55:11;2.45;;;2.10;;
20084;SDS011;10202;48.474;9.138;2024-03-23T00:57:37;3.05;;;2.00;;
20084;SDS011;10202;48.474;9.138;2024-03-23T01:00:04;3.13;;;2.35;;
20084;SDS011;10202;48.474;9.138;2024-03-23T01:02:35;3.40;;;2.00;;
20084;SDS011;10202;48.474;9.138;2024-03-23T01:05:04;1.92;;;1.70;;
20084;SDS011;10202;48.474;9.138;2024-03-23T01:07:29;3.20;;;2.05;;
20084;SDS011;10202;48.474;9.138;2024-03-23T01:09:57;2.97;;;1.75;;
20084;SDS011;10202;48.474;9.138;2024-03-23T01:12:27;3.78;;;1.70;;
20084;SDS011;10202;48.474;9.138;2024-03-23T01:14:53;2.72;;;2.00;;
20084;SDS011;10202;48.474;9.138;2024-03-23T01:17:21;5.00;;;1.92;;
20084;SDS011;10202;48.474;9.138;2024-03-23T01:19:49;3.20;;;2.00;;
20084;SDS011;10202;48.474;9.138;2024-03-23T01:22:17;3.15;;;2.17;;
20084;SDS011;10202;48.474;9.138;2024-03-23T01:24:43;3.67;;;2.08;;
20084;SDS011;10202;48.474;9.138;2024-03-23T01:27:16;3.95;;;1.83;;
20084;SDS011;10202;48.474;9.138;2024-03-23T01:29:43;2.53;;;2.03;;
20084;SDS011;10202;48.474;9.138;2024-03-23T01:32:12;3.17;;;2.03;;
20084;SDS011;10202;48.474;9.138;2024-03-23T01:34:37;3.92;;;1.95;;
20084;SDS011;10202;48.474;9.138;2024-03-23T01:37:10;2.45;;;2.00;;
20084;SDS011;10202;48.474;9.138;2024-03-23T01:39:38;1.73;;;1.63;;
20084;SDS011;10202;48.474;9.138;2024-03-23T01:42:06;3.35;;;2.00;;
20084;SDS011;10202;48.474;9.138;2024-03-23T01:44:34;2.05;;;1.80;;
20084;SDS011;10202;48.474;9.138;2024-03-23T01:46:59;2.75;;;1.50;;
20084;SDS011;10202;48.474;9.138;2024-03-23T01:49:29;3.00;;;1.70;;
20084;SDS011;10202;48.474;9.138;2024-03-23T01:51:55;2.47;;;1.80;;
20084;SDS011;10202;48.474;9.138;2024-03-23T01:54:26;2.75;;;1.80;;
20084;SDS011;10202;48.474;9.138;2024-03-23T01:56:54;2.20;;;1.70;;
20084;SDS011;10202;48.474;9.138;2024-03-23T01:59:25;4.70;;;1.63;;
20084;SDS011;10202;48.474;9.138;2024-03-23T02:01:53;4.50;;;1.70;;
20084;SDS011;10202;48.474;9.138;2024-03-23T02:04:24;2.17;;;1.70;;
20084;SDS011;10202;48.474;9.138;2024-03-23T02:06:50;1.90;;;1.60;;
20084;SDS011;10202;48.474;9.138;2024-03-23T02:09:20;3.17;;;1.80;;
20084;SDS011;10202;48.474;9.138;2024-03-23T02:11:50;4.70;;;1.70;;
20084;SDS011;10202;48.474;9.138;2024-03-23T02:14:20;7.47;;;1.80;;
20084;SDS011;10202;48.474;9.138;2024-03-23T02:16:48;4.10;;;1.80;;
20084;SDS011;10202;48.474;9.138;2024-03-23T02:19:16;1.95;;;1.45;;
20084;SDS011;10202;48.474;9.138;2024-03-23T02:21:46;1.90;;;1.70;;
20084;SDS011;10202;48.474;9.138;2024-03-23T02:24:16;4.28;;;1.95;;
20084;SDS011;10202;48.474;9.138;2024-03-23T02:26:41;3.05;;;1.80;;
20084;SDS011;10202;48.474;9.138;2024-03-23T02:29:09;3.05;;;1.70;;
20084;SDS011;10202;48.474;9.138;2024-03-23T02:31:35;3.50;;;1.63;;
20084;SDS011;10202;48.474;9.138;2024-03-23T02:34:03;4.18;;;1.92;;
20084;SDS011;10202;48.474;9.138;2024-03-23T02:36:32;4.75;;;1.70;;
20084;SDS011;10202;48.474;9.138;2024-03-23T02:39:02;3.50;;;1.45;;
20084;SDS011;10202;48.474;9.138;2024-03-23T02:41:35;3.15;;;1.70;;
20084;SDS011;10202;48.474;9.138;2024-03-23T02:44:07;3.03;;;1.58;;
20084;SDS011;10202;48.474;9.138;2024-03-23T02:46:35;2.63;;;1.83;;
20084;SDS011;10202;48.474;9.138;2024-03-23T02:49:01;3.92;;;2.17;;
20084;SDS011;10202;48.474;9.138;2024-03-23T02:51:27;4.38;;;1.92;;
20084;SDS011;10202;48.474;9.138;2024-03-23T02:53:53;4.03;;;2.10;;
20084;SDS011;10202;48.474;9.138;2024-03-23T02:56:21;6.30;;;2.03;;
20084;SDS011;10202;48.474;9.138;2024-03-23T02:58:47;3.05;;;1.85;;
20084;SDS011;10202;48.474;9.138;2024-03-23T03:01:17;3.67;;;2.10;;
20084;SDS011;10202;48.474;9.138;2024-03-23T03:03:45;4.57;;;2.22;;
20084;SDS011;10202;48.474;9.138;2024-03-23T03:06:10;2.40;;;1.80;;
20084;SDS011;10202;48.474;9.138;2024-03-23T03:08:36;2.15;;;1.88;;
20084;SDS011;10202;48.474;9.138;2024-03-23T03:11:02;4.05;;;2.10;;
20084;SDS011;10202;48.474;9.138;2024-03-23T03:13:32;2.53;;;2.00;;
20084;SDS011;10202;48.474;9.138;2024-03-23T03:16:02;3.60;;;1.98;;
20084;SDS011;10202;48.474;9.138;2024-03-23T03:18:33;5.88;;;1.92;;
20084;SDS011;10202;48.474;9.138;2024-03-23T03:20:58;3.10;;;2.08;;
20084;SDS011;10202;48.474;9.138;2024-03-23T03:23:27;4.47;;;2.30;;
20084;SDS011;10202;48.474;9.138;2024-03-23T03:26:00;3.28;;;2.08;;
20084;SDS011;10202;48.474;9.138;2024-03-23T03:28:25;2.33;;;1.80;;
20084;SDS011;10202;48.474;9.138;2024-03-23T03:30:55;2.03;;;1.83;;
20084;SDS011;10202;48.474;9.138;2024-03-23T03:33:22;3.90;;;1.90;;
20084;SDS011;10202;48.474;9.138;2024-03-23T03:35:56;4.13;;;2.03;;
20084;SDS011;10202;48.474;9.138;2024-03-23T03:38:26;3.72;;;2.10;;
20084;SDS011;10202;48.474;9.138;2024-03-23T03:40:54;3.22;;;2.10;;
20084;SDS011;10202;48.474;9.138;2024-03-23T03:43:24;3.63;;;1.88;;
20084;SDS011;10202;48.474;9.138;2024-03-23T03:45:57;3.45;;;2.00;;
20084;SDS011;10202;48.474;9.138;2024-03-23T03:48:24;3.85;;;1.95;;
20084;SDS011;10202;48.474;9.138;2024-03-23T03:50:52;4.00;;;1.85;;
20084;SDS011;10202;48.474;9.138;2024-03-23T03:53:20;3.28;;;2.00;;
20084;SDS011;10202;48.474;9.138;2024-03-23T03:55:51;4.13;;;2.05;;
20084;SDS011;10202;48.474;9.138;2024-03-23T03:58:18;5.22;;;1.95;;
20084;SDS011;10202;48.474;9.138;2024-03-23T04:00:44;2.50;;;1.80;;
20084;SDS011;10202;48.474;9.138;2024-03-23T04:03:12;5.28;;;2.05;;
20084;SDS011;10202;48.474;9.138;2024-03-23T04:05:39;3.10;;;2.10;;
20084;SDS011;10202;48.474;9.138;2024-03-23T04:08:06;3.30;;;2.10;;
20084;SDS011;10202;48.474;9.138;2024-03-23T04:10:32;7.25;;;2.20;;
20084;SDS011;10202;48.474;9.138;2024-03-23T04:13:03;4.20;;;2.08;;
20084;SDS011;10202;48.474;9.138;2024-03-23T04:15:29;2.95;;;2.00;;
20084;SDS011;10202;48.474;9.138;2024-03-23T04:17:57;4.13;;;2.20;;
20084;SDS011;10202;48.474;9.138;2024-03-23T04:20:22;2.60;;;1.83;;
20084;SDS011;10202;48.474;9.138;2024-03-23T04:22:48;3.72;;;2.10;;
20084;SDS011;10202;48.474;9.138;2024-03-23T04:25:16;4.63;;;2.15;;
20084;SDS011;10202;48.474;9.138;2024-03-23T04:27:44;2.42;;;1.80;;
20084;SDS011;10202;48.474;9.138;2024-03-23T04:30:12;3.97;;;2.10;;
20084;SDS011;10202;48.474;9.138;2024-03-23T04:32:42;2.58;;;1.83;;
20084;SDS011;10202;48.474;9.138;2024-03-23T04:35:08;2.95;;;2.10;;
20084;SDS011;10202;48.474;9.138;2024-03-23T04:37:39;3.63;;;2.00;;
20084;SDS011;10202;48.474;9.138;2024-03-23T04:40:08;5.03;;;1.98;;
20084;SDS011;10202;48.474;9.138;2024-03-23T04:42:34;3.88;;;1.88;;
20084;SDS011;10202;48.474;9.138;2024-03-23T04:44:59;2.30;;;1.85;;
20084;SDS011;10202;48.474;9.138;2024-03-23T04:47:28;2.38;;;1.77;;
20084;SDS011;10202;48.474;9.138;2024-03-23T04:49:56;2.58;;;1.70;;
20084;SDS011;10202;48.474;9.138;2024-03-23T04:52:21;3.60;;;1.75;;
20084;SDS011;10202;48.474;9.138;2024-03-23T04:54:49;2.58;;;1.92;;
20084;SDS011;10202;48.474;9.138;2024-03-23T04:57:17;2.40;;;1.70;;
20084;SDS011;10202;48.474;9.138;2024-03-23T04:59:53;2.33;;;1.80;;
20084;SDS011;10202;48.474;9.138;2024-03-23T05:02:23;4.68;;;1.88;;
20084;SDS011;10202;48.474;9.138;2024-03-23T05:04:52;5.65;;;2.13;;
20084;SDS011;10202;48.474;9.138;2024-03-23T05:07:20;2.22;;;1.80;;
20084;SDS011;10202;48.474;9.138;2024-03-23T05:09:46;3.50;;;1.98;;
20084;SDS011;10202;48.474;9.138;2024-03-23T05:12:16;2.47;;;2.00;;
20084;SDS011;10202;48.474;9.138;2024-03-23T05:14:42;2.90;;;1.90;;
20084;SDS011;10202;48.474;9.138;2024-03-23T05:17:10;3.40;;;1.80;;
20084;SDS011;10202;48.474;9.138;2024-03-23T05:19:37;6.80;;;2.70;;
20084;SDS011;10202;48.474;9.138;2024-03-23T05:22:05;2.25;;;2.05;;
20084;SDS011;10202;48.474;9.138;2024-03-23T05:24:35;7.00;;;2.20;;
20084;SDS011;10202;48.474;9.138;2024-03-23T05:27:03;4.50;;;2.40;;
20084;SDS011;10202;48.474;9.138;2024-03-23T05:29:34;5.35;;;2.30;;
20084;SDS011;10202;48.474;9.138;2024-03-23T05:31:59;3.72;;;2.08;;
20084;SDS011;10202;48.474;9.138;2024-03-23T05:34:28;3.35;;;1.92;;
20084;SDS011;10202;48.474;9.138;2024-03-23T05:36:54;6.05;;;2.40;;
20084;SDS011;10202;48.474;9.138;2024-03-23T05:39:20;6.10;;;2.75;;
20084;SDS011;10202;48.474;9.138;2024-03-23T05:41:49;5.28;;;2.95;;
20084;SDS011;10202;48.474;9.138;2024-03-23T05:44:15;5.20;;;2.85;;
20084;SDS011;10202;48.474;9.138;2024-03-23T05:46:41;4.15;;;2.72;;
20084;SDS011;10202;48.474;9.138;2024-03-23T05:49:16;4.55;;;3.05;;
20084;SDS011;10202;48.474;9.138;2024-03-23T05:51:43;4.55;;;3.40;;
20084;SDS011;10202;48.474;9.138;2024-03-23T05:54:08;3.97;;;3.00;;
20084;SDS011;10202;48.474;9.138;2024-03-23T05:56:36;4.82;;;3.50;;
20084;SDS011;10202;48.474;9.138;2024-03-23T05:59:02;4.57;;;3.17;;
20084;SDS011;10202;48.474;9.138;2024-03-23T06:01:28;5.50;;;3.55;;
20084;SDS011;10202;48.474;9.138;2024-03-23T06:03:56;4.75;;;3.30;;
20084;SDS011;10202;48.474;9.138;2024-03-23T06:06:24;4.47;;;3.33;;
20084;SDS011;10202;48.474;9.138;2024-03-23T06:08:52;6.50;;;3.20;;
20084;SDS011;10202;48.474;9.138;2024-03-23T06:11:19;5.97;;;3.03;;
20084;SDS011;10202;48.474;9.138;2024-03-23T06:13:45;3.45;;;2.88;;
20084;SDS011;10202;48.474;9.138;2024-03-23T06:16:13;4.55;;;2.72;;
20084;SDS011;10202;48.474;9.138;2024-03-23T06:18:41;3.65;;;2.78;;
20084;SDS011;10202;48.474;9.138;2024-03-23T06:21:12;6.10;;;3.17;;
20084;SDS011;10202;48.474;9.138;2024-03-23T06:23:50;3.25;;;2.50;;
20084;SDS011;10202;48.474;9.138;2024-03-23T06:26:18;3.75;;;2.65;;
20084;SDS011;10202;48.474;9.138;2024-03-23T06:28:46;3.97;;;2.50;;
20084;SDS011;10202;48.474;9.138;2024-03-23T06:31:12;3.20;;;2.20;;
20084;SDS011;10202;48.474;9.138;2024-03-23T06:33:38;1.60;;;1.50;;
20084;SDS011;10202;48.474;9.138;2024-03-23T06:36:10;2.35;;;1.58;;
20084;SDS011;10202;48.474;9.138;2024-03-23T06:38:41;2.10;;;1.23;;
20084;SDS011;10202;48.474;9.138;2024-03-23T06:41:07;1.30;;;1.10;;
20084;SDS011;10202;48.474;9.138;2024-03-23T06:43:38;1.00;;;0.90;;
20084;SDS011;10202;48.474;9.138;2024-03-23T06:46:04;0.82;;;0.82;;
20084;SDS011;10202;48.474;9.138;2024-03-23T06:48:32;0.73;;;0.60;;
20084;SDS011;10202;48.474;9.138;2024-03-23T06:50:58;0.68;;;0.55;;
20084;SDS011;10202;48.474;9.138;2024-03-23T06:53:24;0.60;;;0.60;;
20084;SDS011;10202;48.474;9.138;2024-03-23T06:55:52;0.50;;;0.50;;
20084;SDS011;10202;48.474;9.138;2024-03-23T06:58:19;0.82;;;0.80;;
20084;SDS011;10202;48.474;9.138;2024-03-23T07:00:46;0.60;;;0.60;;
20084;SDS011;10202;48.474;9.138;2024-03-23T07:03:11;0.70;;;0.55;;
20084;SDS011;10202;48.474;9.138;2024-03-23T07:05:37;0.55;;;0.55;;
20084;SDS011;10202;48.474;9.138;2024-03-23T07:08:05;1.58;;;0.70;;
20084;SDS011;10202;48.474;9.138;2024-03-23T07:10:33;1.73;;;0.60;;
20084;SDS011;10202;48.474;9.138;2024-03-23T07:13:02;0.80;;;0.60;;
20084;SDS011;10202;48.474;9.138;2024-03-23T07:15:30;0.60;;;0.60;;
20084;SDS011;10202;48.474;9.138;2024-03-23T07:17:56;1.10;;;0.70;;
20084;SDS011;10202;48.474;9.138;2024-03-23T07:20:24;0.55;;;0.55;;
20084;SDS011;10202;48.474;9.138;2024-03-23T07:22:57;0.55;;;0.55;;
20084;SDS011;10202;48.474;9.138;2024-03-23T07:25:24;0.70;;;0.70;;
20084;SDS011;10202;48.474;9.138;2024-03-23T07:27:54;0.65;;;0.65;;
20084;SDS011;10202;48.474;9.138;2024-03-23T07:30:22;0.63;;;0.63;;
20084;SDS011;10202;48.474;9.138;2024-03-23T07:32:50;1.20;;;0.65;;
20084;SDS011;10202;48.474;9.138;2024-03-23T07:35:17;0.65;;;0.50;;
20084;SDS011;10202;48.474;9.138;2024-03-23T07:37:47;0.60;;;0.60;;
20084;SDS011;10202;48.474;9.138;2024-03-23T07:40:18;0.60;;;0.60;;
20084;SDS011;10202;48.474;9.138;2024-03-23T07:42:48;0.70;;;0.70;;
20084;SDS011;10202;48.474;9.138;2024-03-23T07:45:16;1.20;;;0.95;;
20084;SDS011;10202;48.474;9.138;2024-03-23T07:47:47;0.70;;;0.70;;
20084;SDS011;10202;48.474;9.138;2024-03-23T07:50:13;0.57;;;0.57;;
20084;SDS011;10202;48.474;9.138;2024-03-23T07:52:38;2.80;;;0.88;;
20084;SDS011;10202;48.474;9.138;2024-03-23T07:55:06;0.60;;;0.60;;
20084;SDS011;10202;48.474;9.138;2024-03-23T07:57:37;0.75;;;0.75;;
20084;SDS011;10202;48.474;9.138;2024-03-23T08:00:02;0.70;;;0.70;;
20084;SDS011;10202;48.474;9.138;2024-03-23T08:02:29;0.50;;;0.50;;
20084;SDS011;10202;48.474;9.138;2024-03-23T08:04:55;0.60;;;0.60;;
20084;SDS011;10202;48.474;9.138;2024-03-23T08:07:22;0.40;;;0.40;;
20084;SDS011;10202;48.474;9.138;2024-03-23T08:09:56;0.40;;;0.40;;
20084;SDS011;10202;48.474;9.138;2024-03-23T08:12:27;0.30;;;0.30;;
20084;SDS011;10202;48.474;9.138;2024-03-23T08:14:53;0.50;;;0.50;;
20084;SDS011;10202;48.474;9.138;2024-03-23T08:17:18;0.40;;;0.38;;
20084;SDS011;10202;48.474;9.138;2024-03-23T08:19:44;1.25;;;0.50;;
20084;SDS011;10202;48.474;9.138;2024-03-23T08:22:12;3.22;;;0.63;;
20084;SDS011;10202;48.474;9.138;2024-03-23T08:24:37;1.10;;;0.60;;
20084;SDS011;10202;48.474;9.138;2024-03-23T08:27:05;0.60;;;0.60;;
20084;SDS011;10202;48.474;9.138;2024-03-23T08:29:33;0.50;;;0.50;;
20084;SDS011;10202;48.474;9.138;2024-03-23T08:32:03;1.52;;;0.75;;
20084;SDS011;10202;48.474;9.138;2024-03-23T08:34:29;2.30;;;0.80;;
20084;SDS011;10202;48.474;9.138;2024-03-23T08:36:59;0.80;;;0.80;;
20084;SDS011;10202;48.474;9.138;2024-03-23T08:39:27;0.88;;;0.70;;
20084;SDS011;10202;48.474;9.138;2024-03-23T08:41:52;1.40;;;0.65;;
20084;SDS011;10202;48.474;9.138;2024-03-23T08:44:22;1.65;;;0.93;;
20084;SDS011;10202;48.474;9.138;2024-03-23T08:46:50;1.83;;;1.00;;
20084;SDS011;10202;48.474;9.138;2024-03-23T08:49:18;1.08;;;0.98;;
20084;SDS011;10202;48.474;9.138;2024-03-23T08:51:46;2.15;;;1.08;;
20084;SDS011;10202;48.474;9.138;2024-03-23T08:54:11;3.53;;;1.00;;
20084;SDS011;10202;48.474;9.138;2024-03-23T08:56:42;1.15;;;1.00;;
20084;SDS011;10202;48.474;9.138;2024-03-23T08:59:07;1.58;;;1.10;;
20084;SDS011;10202;48.474;9.138;2024-03-23T09:01:35;1.10;;;1.00;;
20084;SDS011;10202;48.474;9.138;2024-03-23T09:04:03;2.30;;;1.33;;
20084;SDS011;10202;48.474;9.138;2024-03-23T09:06:33;2.50;;;1.30;;
20084;SDS011;10202;48.474;9.138;2024-03-23T09:09:01;2.03;;;1.23;;
20084;SDS011;10202;48.474;9.138;2024-03-23T09:11:27;4.05;;;1.67;;
20084;SDS011;10202;48.474;9.138;2024-03-23T09:13:57;4.40;;;1.77;;
20084;SDS011;10202;48.474;9.138;2024-03-23T09:16:25;3.30;;;1.98;;
20084;SDS011;10202;48.474;9.138;2024-03-23T09:18:53;8.07;;;2.10;;
20084;SDS011;10202;48.474;9.138;2024-03-23T09:21:19;5.47;;;2.40;;
20084;SDS011;10202;48.474;9.138;2024-03-23T09:23:49;3.22;;;2.08;;
20084;SDS011;10202;48.474;9.138;2024-03-23T09:26:17;3.70;;;2.08;;
20084;SDS011;10202;48.474;9.138;2024-03-23T09:28:45;4.38;;;1.92;;
20084;SDS011;10202;48.474;9.138;2024-03-23T09:31:16;3.13;;;2.22;;
20084;SDS011;10202;48.474;9.138;2024-03-23T09:33:42;4.47;;;2.60;;
20084;SDS011;10202;48.474;9.138;2024-03-23T09:36:10;6.55;;;2.70;;
20084;SDS011;10202;48.474;9.138;2024-03-23T09:38:41;4.40;;;2.20;;
20084;SDS011;10202;48.474;9.138;2024-03-23T09:41:09;5.10;;;2.50;;
20084;SDS011;10202;48.474;9.138;2024-03-23T09:43:39;6.95;;;2.35;;
20084;SDS011;10202;48.474;9.138;2024-03-23T09:46:05;3.45;;;2.42;;
20084;SDS011;10202;48.474;9.138;2024-03-23T09:48:33;6.10;;;2.40;;
20084;SDS011;10202;48.474;9.138;2024-03-23T09:51:01;3.95;;;2.15;;
20084;SDS011;10202;48.474;9.138;2024-03-23T09:53:29;6.50;;;2.40;;
20084;SDS011;10202;48.474;9.138;2024-03-23T09:55:59;6.05;;;2.53;;
20084;SDS011;10202;48.474;9.138;2024-03-23T09:58:31;6.30;;;2.50;;
20084;SDS011;10202;48.474;9.138;2024-03-23T10:00:57;4.97;;;2.28;;
20084;SDS011;10202;48.474;9.138;2024-03-23T10:03:26;6.95;;;2.42;;
20084;SDS011;10202;48.474;9.138;2024-03-23T10:06:04;7.03;;;2.90;;
20084;SDS011;10202;48.474;9.138;2024-03-23T10:08:32;7.43;;;3.20;;
20084;SDS011;10202;48.474;9.138;2024-03-23T10:11:00;5.90;;;2.80;;
20084;SDS011;10202;48.474;9.138;2024-03-23T10:13:43;6.65;;;2.53;;
20084;SDS011;10202;48.474;9.138;2024-03-23T10:16:22;5.85;;;2.58;;
20084;SDS011;10202;48.474;9.138;2024-03-23T10:18:49;8.60;;;2.60;;
20084;SDS011;10202;48.474;9.138;2024-03-23T10:21:18;7.80;;;2.60;;
20084;SDS011;10202;48.474;9.138;2024-03-23T10:23:44;4.50;;;2.60;;
20084;SDS011;10202;48.474;9.138;2024-03-23T10:31:18;6.88;;;3.13;;
20084;SDS011;10202;48.474;9.138;2024-03-23T10:33:47;7.65;;;2.80;;
20084;SDS011;10202;48.474;9.138;2024-03-23T10:36:19;7.80;;;2.70;;
20084;SDS011;10202;48.474;9.138;2024-03-23T10:38:47;6.18;;;2.90;;
20084;SDS011;10202;48.474;9.138;2024-03-23T10:41:15;7.85;;;2.53;;
20084;SDS011;10202;48.474;9.138;2024-03-23T10:43:42;7.05;;;3.05;;
20084;SDS011;10202;48.474;9.138;2024-03-23T10:46:11;7.78;;;3.28;;
20084;SDS011;10202;48.474;9.138;2024-03-23T10:48:39;7.53;;;2.70;;
20084;SDS011;10202;48.474;9.138;2024-03-23T10:51:08;8.10;;;3.65;;
20084;SDS011;10202;48.474;9.138;2024-03-23T10:53:35;6.93;;;2.75;;
20084;SDS011;10202;48.474;9.138;2024-03-23T10:56:02;8.25;;;2.70;;
20084;SDS011;10202;48.474;9.138;2024-03-23T10:58:38;6.43;;;2.45;;
20084;SDS011;10202;48.474;9.138;2024-03-23T11:01:06;8.68;;;2.67;;
20084;SDS011;10202;48.474;9.138;2024-03-23T11:03:33;7.60;;;1.88;;
20084;SDS011;10202;48.474;9.138;2024-03-23T11:06:06;3.33;;;1.60;;
20084;SDS011;10202;48.474;9.138;2024-03-23T11:08:37;3.20;;;1.40;;
20084;SDS011;10202;48.474;9.138;2024-03-23T11:11:19;2.38;;;1.42;;
20084;SDS011;10202;48.474;9.138;2024-03-23T11:13:53;2.33;;;1.17;;
20084;SDS011;10202;48.474;9.138;2024-03-23T11:16:22;2.50;;;1.33;;
20084;SDS011;10202;48.474;9.138;2024-03-23T11:18:52;2.80;;;1.35;;
20084;SDS011;10202;48.474;9.138;2024-03-23T11:24:21;1.88;;;1.17;;
20084;SDS011;10202;48.474;9.138;2024-03-23T11:26:47;3.50;;;1.23;;
20084;SDS011;10202;48.474;9.138;2024-03-23T11:29:20;6.40;;;1.52;;
20084;SDS011;10202;48.474;9.138;2024-03-23T11:31:48;3.20;;;1.50;;
20084;SDS011;10202;48.474;9.138;2024-03-23T11:34:18;2.55;;;1.52;;
20084;SDS011;10202;48.474;9.138;2024-03-23T11:36:47;4.38;;;1.55;;
20084;SDS011;10202;48.474;9.138;2024-03-23T11:39:19;3.67;;;1.30;;
20084;SDS011;10202;48.474;9.138;2024-03-23T11:41:51;5.20;;;1.55;;
20084;SDS011;10202;48.474;9.138;2024-03-23T11:44:21;4.85;;;1.27;;
20084;SDS011;10202;48.474;9.138;2024-03-23T11:46:51;3.05;;;1.35;;
20084;SDS011;10202;48.474;9.138;2024-03-23T11:49:23;5.38;;;1.63;;
20084;SDS011;10202;48.474;9.138;2024-03-23T11:51:53;5.70;;;1.60;;
20084;SDS011;10202;48.474;9.138;2024-03-23T11:54:21;7.68;;;1.80;;
20084;SDS011;10202;48.474;9.138;2024-03-23T11:59:34;4.50;;;1.52;;
20084;SDS011;10202;48.474;9.138;2024-03-23T12:02:00;6.68;;;1.80;;
20084;SDS011;10202;48.474;9.138;2024-03-23T12:04:30;7.05;;;2.97;;
20084;SDS011;10202;48.474;9.138;2024-03-23T12:09:45;6.10;;;2.42;;
20084;SDS011;10202;48.474;9.138;2024-03-23T12:12:13;6.10;;;2.38;;
20084;SDS011;10202;48.474;9.138;2024-03-23T12:15:25;7.47;;;1.85;;
20084;SDS011;10202;48.474;9.138;2024-03-23T12:17:33;4.30;;;1.60;;
20084;SDS011;10202;48.474;9.138;2024-03-23T12:20:00;3.47;;;1.48;;
20084;SDS011;10202;48.474;9.138;2024-03-23T12:22:28;5.28;;;1.60;;
20084;SDS011;10202;48.474;9.138;2024-03-23T12:24:57;4.20;;;1.25;;
20084;SDS011;10202;48.474;9.138;2024-03-23T12:27:25;2.08;;;1.48;;
20084;SDS011;10202;48.474;9.138;2024-03-23T12:29:55;5.38;;;1.50;;
20084;SDS011;10202;48.474;9.138;2024-03-23T12:32:21;5.03;;;2.05;;
20084;SDS011;10202;48.474;9.138;2024-03-23T12:34:52;3.58;;;1.92;;
20084;SDS011;10202;48.474;9.138;2024-03-23T12:37:20;2.90;;;1.73;;
20084;SDS011;10202;48.474;9.138;2024-03-23T12:39:45;2.70;;;1.50;;
20084;SDS011;10202;48.474;9.138;2024-03-23T12:42:13;3.67;;;1.67;;
20084;SDS011;10202;48.474;9.138;2024-03-23T12:44:43;4.50;;;1.70;;
20084;SDS011;10202;48.474;9.138;2024-03-23T12:47:12;2.00;;;1.52;;
20084;SDS011;10202;48.474;9.138;2024-03-23T12:49:40;2.35;;;1.40;;
20084;SDS011;10202;48.474;9.138;2024-03-23T12:52:05;3.28;;;1.63;;
20084;SDS011;10202;48.474;9.138;2024-03-23T12:54:34;2.88;;;1.40;;
20084;SDS011;10202;48.474;9.138;2024-03-23T12:57:02;5.20;;;1.70;;
20084;SDS011;10202;48.474;9.138;2024-03-23T12:59:30;3.30;;;1.90;;
20084;SDS011;10202;48.474;9.138;2024-03-23T13:02:03;2.55;;;1.42;;
20084;SDS011;10202;48.474;9.138;2024-03-23T13:04:33;2.72;;;1.70;;
20084;SDS011;10202;48.474;9.138;2024-03-23T13:07:01;4.32;;;1.52;;
20084;SDS011;10202;48.474;9.138;2024-03-23T13:09:30;6.20;;;1.50;;
20084;SDS011;10202;48.474;9.138;2024-03-23T13:11:57;5.07;;;2.75;;
20084;SDS011;10202;48.474;9.138;2024-03-23T13:14:23;2.40;;;1.80;;
20084;SDS011;10202;48.474;9.138;2024-03-23T13:16:48;2.33;;;1.67;;
20084;SDS011;10202;48.474;9.138;2024-03-23T13:19:14;4.10;;;1.67;;
20084;SDS011;10202;48.474;9.138;2024-03-23T13:21:39;6.55;;;3.88;;
20084;SDS011;10202;48.474;9.138;2024-03-23T13:24:05;5.85;;;1.50;;
20084;SDS011;10202;48.474;9.138;2024-03-23T13:26:34;5.43;;;1.67;;
20084;SDS011;10202;48.474;9.138;2024-03-23T13:28:59;3.30;;;1.63;;
20084;SDS011;10202;48.474;9.138;2024-03-23T13:31:27;3.53;;;1.60;;
20084;SDS011;10202;48.474;9.138;2024-03-23T13:33:53;5.18;;;2.00;;
20084;SDS011;10202;48.474;9.138;2024-03-23T13:36:21;4.00;;;1.60;;
20084;SDS011;10202;48.474;9.138;2024-03-23T13:38:51;7.38;;;2.03;;
20084;SDS011;10202;48.474;9.138;2024-03-23T13:41:19;4.65;;;1.63;;
20084;SDS011;10202;48.474;9.138;2024-03-23T13:43:44;4.93;;;1.58;;
20084;SDS011;10202;48.474;9.138;2024-03-23T13:46:10;7.10;;;1.90;;
20084;SDS011;10202;48.474;9.138;2024-03-23T13:48:35;2.83;;;1.52;;
20084;SDS011;10202;48.474;9.138;2024-03-23T13:51:03;3.80;;;1.52;;
20084;SDS011;10202;48.474;9.138;2024-03-23T13:53:32;4.50;;;1.55;;
20084;SDS011;10202;48.474;9.138;2024-03-23T13:56:03;6.90;;;1.90;;
20084;SDS011;10202;48.474;9.138;2024-03-23T13:58:29;2.42;;;1.50;;
20084;SDS011;10202;48.474;9.138;2024-03-23T14:00:57;2.45;;;1.48;;
20084;SDS011;10202;48.474;9.138;2024-03-23T14:03:23;1.77;;;0.70;;
20084;SDS011;10202;48.474;9.138;2024-03-23T14:05:51;5.15;;;1.00;;
20084;SDS011;10202;48.474;9.138;2024-03-23T14:08:20;4.38;;;1.25;;
20084;SDS011;10202;48.474;9.138;2024-03-23T14:10:47;1.88;;;1.20;;
20084;SDS011;10202;48.474;9.138;2024-03-23T14:13:15;3.42;;;1.15;;
20084;SDS011;10202;48.474;9.138;2024-03-23T14:15:41;2.15;;;0.95;;
20084;SDS011;10202;48.474;9.138;2024-03-23T14:18:09;1.58;;;1.00;;
20084;SDS011;10202;48.474;9.138;2024-03-23T14:20:34;4.03;;;1.08;;
20084;SDS011;10202;48.474;9.138;2024-03-23T14:23:02;2.67;;;1.08;;
20084;SDS011;10202;48.474;9.138;2024-03-23T14:25:31;6.65;;;1.38;;
20084;SDS011;10202;48.474;9.138;2024-03-23T14:27:59;2.55;;;1.02;;
20084;SDS011;10202;48.474;9.138;2024-03-23T14:30:25;2.15;;;1.10;;
20084;SDS011;10202;48.474;9.138;2024-03-23T14:32:50;3.83;;;1.10;;
20084;SDS011;10202;48.474;9.138;2024-03-23T14:35:20;5.50;;;1.13;;
20084;SDS011;10202;48.474;9.138;2024-03-23T14:37:48;2.13;;;1.00;;
20084;SDS011;10202;48.474;9.138;2024-03-23T14:40:14;1.38;;;0.90;;
20084;SDS011;10202;48.474;9.138;2024-03-23T14:42:39;2.35;;;1.17;;
20084;SDS011;10202;48.474;9.138;2024-03-23T14:45:08;2.28;;;1.13;;
20084;SDS011;10202;48.474;9.138;2024-03-23T14:47:34;3.10;;;1.30;;
20084;SDS011;10202;48.474;9.138;2024-03-23T14:50:05;3.67;;;1.95;;
20084;SDS011;10202;48.474;9.138;2024-03-23T14:52:39;2.13;;;1.40;;
20084;SDS011;10202;48.474;9.138;2024-03-23T14:55:07;8.90;;;1.88;;
20084;SDS011;10202;48.474;9.138;2024-03-23T14:57:34;7.07;;;1.60;;
20084;SDS011;10202;48.474;9.138;2024-03-23T15:00:00;2.63;;;1.10;;
20084;SDS011;10202;48.474;9.138;2024-03-23T15:02:26;1.83;;;1.00;;
20084;SDS011;10202;48.474;9.138;2024-03-23T15:04:54;2.78;;;0.88;;
20084;SDS011;10202;48.474;9.138;2024-03-23T15:07:24;1.63;;;0.80;;
20084;SDS011;10202;48.474;9.138;2024-03-23T15:09:50;2.63;;;1.63;;
20084;SDS011;10202;48.474;9.138;2024-03-23T15:12:19;4.82;;;2.25;;
20084;SDS011;10202;48.474;9.138;2024-03-23T15:14:44;2.65;;;1.85;;
20084;SDS011;10202;48.474;9.138;2024-03-23T15:17:12;2.20;;;1.50;;
20084;SDS011;10202;48.474;9.138;2024-03-23T15:19:43;5.53;;;2.75;;
20084;SDS011;10202;48.474;9.138;2024-03-23T15:22:10;4.60;;;2.10;;
20084;SDS011;10202;48.474;9.138;2024-03-23T15:24:36;4.30;;;2.10;;
20084;SDS011;10202;48.474;9.138;2024-03-23T15:27:05;4.82;;;1.90;;
20084;SDS011;10202;48.474;9.138;2024-03-23T15:29:33;6.22;;;2.80;;
20084;SDS011;10202;48.474;9.138;2024-03-23T15:31:59;4.18;;;2.00;;
20084;SDS011;10202;48.474;9.138;2024-03-23T15:34:28;3.05;;;1.30;;
20084;SDS011;10202;48.474;9.138;2024-03-23T15:36:54;3.33;;;1.42;;
20084;SDS011;10202;48.474;9.138;2024-03-23T15:39:20;3.47;;;1.60;;
20084;SDS011;10202;48.474;9.138;2024-03-23T15:41:49;4.57;;;1.88;;
20084;SDS011;10202;48.474;9.138;2024-03-23T15:44:15;3.75;;;1.13;;
20084;SDS011;10202;48.474;9.138;2024-03-23T15:46:43;3.13;;;1.33;;
20084;SDS011;10202;48.474;9.138;2024-03-23T15:49:14;3.55;;;1.73;;
20084;SDS011;10202;48.474;9.138;2024-03-23T15:51:39;4.18;;;2.53;;
20084;SDS011;10202;48.474;9.138;2024-03-23T15:54:07;5.03;;;2.00;;
20084;SDS011;10202;48.474;9.138;2024-03-23T15:56:34;4.75;;;1.48;;
20084;SDS011;10202;48.474;9.138;2024-03-23T15:59:00;2.05;;;1.30;;